createdAt,value
2023-03-29T00:00:07.741Z,62.60
2023-03-29T00:02:39.246Z,62.10
2023-03-29T00:05:07.461Z,61.90
2023-03-29T00:07:34.764Z,61.90
2023-03-29T00:10:04.729Z,62.30
2023-03-29T00:12:31.976Z,61.80
2023-03-29T00:14:59.067Z,61.80
2023-03-29T00:17:26.413Z,62.30
2023-03-29T00:19:53.573Z,62.40
2023-03-29T00:22:21.419Z,63.00
2023-03-29T00:24:49.222Z,62.10
2023-03-29T00:27:16.930Z,63.60
2023-03-29T00:29:44.206Z,62.60
2023-03-29T00:32:12.143Z,63.00
2023-03-29T00:34:42.673Z,62.80
2023-03-29T00:37:10.105Z,62.50
2023-03-29T00:39:37.573Z,63.00
2023-03-29T00:42:04.831Z,63.50
2023-03-29T00:45:06.338Z,63.10
2023-03-29T00:47:57.191Z,63.30
2023-03-29T00:50:30.855Z,64.00
2023-03-29T00:53:29.545Z,63.50
2023-03-29T00:56:04.488Z,63.70
2023-03-29T00:59:00.293Z,63.50
2023-03-29T01:01:48.258Z,64.10
2023-03-29T01:04:34.036Z,63.60
2023-03-29T01:07:21.382Z,63.90
2023-03-29T01:10:09.193Z,64.30
2023-03-29T01:12:44.594Z,64.40
2023-03-29T01:15:15.413Z,64.60
2023-03-29T01:17:50.328Z,64.50
2023-03-29T01:20:22.335Z,64.10
2023-03-29T01:23:15.942Z,64.80
2023-03-29T01:26:19.663Z,64.50
2023-03-29T01:29:04.780Z,64.90
2023-03-29T01:31:42.386Z,65.10
2023-03-29T01:34:22.056Z,64.80
2023-03-29T01:37:00.391Z,64.70
2023-03-29T01:39:27.666Z,65.20
2023-03-29T01:42:42.675Z,65.20
2023-03-29T01:45:37.017Z,65.00
2023-03-29T01:48:51.256Z,65.10
2023-03-29T01:51:21.202Z,65.00
2023-03-29T01:54:00.745Z,65.50
2023-03-29T01:56:34.304Z,65.50
2023-03-29T01:59:07.745Z,66.20
2023-03-29T02:01:42.588Z,66.00
2023-03-29T02:04:13.375Z,65.90
2023-03-29T02:06:42.086Z,66.10
2023-03-29T02:09:09.914Z,65.90
2023-03-29T02:11:38.246Z,66.10
2023-03-29T02:14:05.670Z,66.10
2023-03-29T02:16:39.153Z,66.20
2023-03-29T02:19:07.919Z,66.40
2023-03-29T02:21:48.340Z,66.40
2023-03-29T02:24:20.665Z,66.60
2023-03-29T02:26:48.948Z,66.60
2023-03-29T02:29:16.344Z,65.90
2023-03-29T02:32:00.196Z,66.60
2023-03-29T02:34:40.135Z,67.10
2023-03-29T02:37:15.682Z,66.80
2023-03-29T02:39:43.064Z,66.60
2023-03-29T02:42:10.973Z,67.00
2023-03-29T02:44:41.776Z,66.80
2023-03-29T02:47:16.831Z,67.30
2023-03-29T02:49:44.351Z,67.00
2023-03-29T02:52:22.193Z,67.00
2023-03-29T02:54:51.643Z,67.90
2023-03-29T02:57:26.677Z,67.70
2023-03-29T02:59:56.995Z,67.70
2023-03-29T03:02:27.885Z,67.50
2023-03-29T03:04:55.855Z,67.90
2023-03-29T03:07:24.928Z,68.20
2023-03-29T03:09:52.039Z,68.20
2023-03-29T03:12:19.184Z,68.20
2023-03-29T03:14:46.413Z,68.20
2023-03-29T03:17:13.469Z,68.60
2023-03-29T03:19:40.731Z,68.30
2023-03-29T03:22:09.903Z,68.80
2023-03-29T03:24:37.353Z,69.10
2023-03-29T03:27:04.931Z,69.30
2023-03-29T03:29:32.080Z,68.90
2023-03-29T03:32:05.821Z,68.90
2023-03-29T03:34:51.675Z,69.20
2023-03-29T03:37:20.036Z,68.80
2023-03-29T03:39:47.644Z,68.70
2023-03-29T03:42:15.434Z,69.00
2023-03-29T03:44:44.948Z,69.20
2023-03-29T03:47:29.290Z,69.10
2023-03-29T03:49:58.590Z,69.60
2023-03-29T03:52:27.036Z,69.60
2023-03-29T03:54:54.199Z,69.80
2023-03-29T03:57:40.327Z,70.20
2023-03-29T04:00:19.758Z,70.70
2023-03-29T04:02:54.625Z,71.10
2023-03-29T04:05:21.941Z,71.40
2023-03-29T04:07:49.697Z,71.90
2023-03-29T04:10:19.823Z,72.30
2023-03-29T04:13:13.440Z,72.90
2023-03-29T04:16:01.709Z,73.00
2023-03-29T04:18:29.961Z,73.60
2023-03-29T04:20:59.519Z,73.70
2023-03-29T04:23:28.621Z,74.00
2023-03-29T04:25:56.784Z,74.10
2023-03-29T04:28:46.623Z,74.40
2023-03-29T04:31:18.780Z,74.60
2023-03-29T04:34:21.581Z,75.00
2023-03-29T04:36:50.849Z,75.10
2023-03-29T04:39:22.184Z,75.30
2023-03-29T04:41:54.648Z,75.60
2023-03-29T04:44:26.861Z,75.80
2023-03-29T04:46:54.045Z,75.50
2023-03-29T04:49:21.180Z,75.60
2023-03-29T04:51:51.576Z,75.50
2023-03-29T04:54:21.703Z,75.30
2023-03-29T04:57:14.688Z,75.00
2023-03-29T05:00:15.161Z,75.30
2023-03-29T05:03:00.007Z,74.70
2023-03-29T05:05:30.175Z,74.80
2023-03-29T05:08:00.806Z,74.80
2023-03-29T05:10:37.523Z,75.00
2023-03-29T05:13:04.753Z,74.70
2023-03-29T05:15:32.774Z,74.10
2023-03-29T05:18:00.937Z,74.00
2023-03-29T05:20:28.630Z,73.50
2023-03-29T05:22:57.353Z,73.60
2023-03-29T05:25:57.197Z,73.70
2023-03-29T05:28:24.438Z,73.50
2023-03-29T05:31:04.464Z,73.70
2023-03-29T05:33:34.667Z,73.70
2023-03-29T05:36:14.451Z,73.90
2023-03-29T05:38:46.691Z,74.40
2023-03-29T05:41:15.974Z,74.10
2023-03-29T05:44:01.625Z,73.80
2023-03-29T05:46:29.862Z,73.80
2023-03-29T05:49:01.723Z,73.50
2023-03-29T05:51:58.422Z,73.80
2023-03-29T05:54:27.251Z,73.70
2023-03-29T05:56:54.649Z,73.70
2023-03-29T05:59:23.609Z,73.80
2023-03-29T06:01:51.949Z,74.30
2023-03-29T06:04:21.402Z,74.00
2023-03-29T06:07:12.658Z,73.80
2023-03-29T06:09:44.739Z,73.20
2023-03-29T06:12:12.318Z,72.80
2023-03-29T06:14:45.718Z,72.70
2023-03-29T06:17:25.338Z,72.30
2023-03-29T06:19:53.523Z,72.30
2023-03-29T06:22:24.423Z,72.60
2023-03-29T06:24:52.184Z,72.80
2023-03-29T06:27:29.496Z,72.70
2023-03-29T06:29:57.414Z,72.20
2023-03-29T06:32:24.524Z,72.30
2023-03-29T06:34:57.857Z,72.20
2023-03-29T06:37:25.087Z,72.50
2023-03-29T06:40:02.506Z,72.30
2023-03-29T06:42:35.883Z,71.90
2023-03-29T06:45:34.770Z,72.00
2023-03-29T06:48:07.836Z,72.50
2023-03-29T06:50:36.263Z,71.80
2023-03-29T06:53:11.591Z,71.80
2023-03-29T06:55:40.007Z,71.40
2023-03-29T06:58:29.910Z,72.00
2023-03-29T07:01:04.019Z,71.40
2023-03-29T07:03:51.780Z,71.20
2023-03-29T07:06:24.362Z,70.70
2023-03-29T07:08:52.592Z,71.00
2023-03-29T07:11:46.663Z,70.20
2023-03-29T07:14:23.059Z,70.30
2023-03-29T07:16:52.336Z,70.90
2023-03-29T07:19:30.184Z,70.20
2023-03-29T07:21:57.964Z,70.00
2023-03-29T07:24:35.729Z,70.40
2023-03-29T07:27:04.835Z,69.90
2023-03-29T07:29:33.314Z,69.90
2023-03-29T07:32:00.935Z,69.90
2023-03-29T07:35:00.383Z,69.20
2023-03-29T07:37:36.957Z,70.00
2023-03-29T07:40:09.405Z,69.10
2023-03-29T07:42:45.481Z,68.80
2023-03-29T07:45:17.631Z,69.10
2023-03-29T07:47:59.108Z,69.80
2023-03-29T07:50:32.572Z,70.50
2023-03-29T07:53:03.007Z,70.00
2023-03-29T07:55:31.979Z,70.70
2023-03-29T07:58:19.394Z,69.70
2023-03-29T08:00:46.639Z,69.90
2023-03-29T08:03:36.490Z,69.60
2023-03-29T08:06:06.319Z,70.40
2023-03-29T08:08:33.439Z,70.40
2023-03-29T08:11:09.056Z,69.40
2023-03-29T08:13:53.840Z,70.30
2023-03-29T08:16:20.978Z,69.70
2023-03-29T08:18:55.634Z,69.00
2023-03-29T08:21:26.530Z,69.50
2023-03-29T08:23:53.902Z,69.70
2023-03-29T08:26:25.783Z,69.10
2023-03-29T08:28:53.243Z,69.20
2023-03-29T08:31:23.037Z,67.70
2023-03-29T08:33:50.350Z,67.70
2023-03-29T08:36:37.761Z,67.80
2023-03-29T08:39:12.176Z,66.80
2023-03-29T08:42:22.749Z,67.40
2023-03-29T08:45:29.718Z,66.60
2023-03-29T08:48:28.829Z,66.40
2023-03-29T08:51:08.644Z,67.00
2023-03-29T08:53:41.835Z,67.10
2023-03-29T08:56:34.032Z,67.50
2023-03-29T08:59:33.198Z,67.70
2023-03-29T09:02:10.468Z,67.10
2023-03-29T09:04:42.520Z,67.10
2023-03-29T09:07:26.043Z,67.30
2023-03-29T09:09:55.562Z,67.60
2023-03-29T09:13:11.232Z,66.50
2023-03-29T09:15:53.136Z,67.20
2023-03-29T09:19:25.466Z,67.40
2023-03-29T09:22:33.055Z,67.00
2023-03-29T09:25:15.205Z,66.40
2023-03-29T09:28:08.230Z,67.20
2023-03-29T09:31:05.179Z,67.20
2023-03-29T09:33:59.042Z,66.70
2023-03-29T09:36:42.774Z,66.70
2023-03-29T09:39:15.145Z,67.50
2023-03-29T09:42:04.602Z,65.40
2023-03-29T09:44:40.876Z,66.10
2023-03-29T09:47:22.160Z,66.50
2023-03-29T09:49:57.164Z,65.40
2023-03-29T09:52:24.512Z,66.20
2023-03-29T09:55:27.744Z,65.70
2023-03-29T09:58:19.297Z,65.60
2023-03-29T10:00:51.190Z,65.40
2023-03-29T10:03:25.916Z,64.80
2023-03-29T10:06:14.623Z,65.10
2023-03-29T10:08:51.776Z,64.90
2023-03-29T10:11:33.064Z,64.90
2023-03-29T10:14:16.879Z,64.70
2023-03-29T10:16:46.340Z,63.60
2023-03-29T10:19:33.042Z,64.00
2023-03-29T10:22:07.747Z,63.90
2023-03-29T10:24:35.602Z,63.80
2023-03-29T10:27:12.429Z,63.80
2023-03-29T10:29:42.442Z,64.10
2023-03-29T10:32:35.278Z,64.80
2023-03-29T10:35:13.545Z,64.20
2023-03-29T10:37:44.041Z,64.00
2023-03-29T10:40:48.113Z,63.50
2023-03-29T10:43:32.775Z,63.80
2023-03-29T10:46:23.504Z,63.10
2023-03-29T10:49:05.959Z,64.30
2023-03-29T10:51:34.516Z,64.20
2023-03-29T10:54:03.866Z,64.00
2023-03-29T10:56:56.129Z,65.00
2023-03-29T10:59:44.297Z,65.80
2023-03-29T11:02:17.687Z,65.40
2023-03-29T11:05:01.179Z,65.30
2023-03-29T11:07:48.494Z,65.70
2023-03-29T11:11:06.444Z,65.80
2023-03-29T11:14:09.488Z,65.30
2023-03-29T11:16:57.311Z,65.30
2023-03-29T11:19:58.394Z,66.50
2023-03-29T11:23:03.146Z,65.40
2023-03-29T11:26:04.418Z,65.30
2023-03-29T11:28:39.213Z,65.10
2023-03-29T11:31:39.168Z,64.50
2023-03-29T11:34:41.399Z,65.90
2023-03-29T11:37:46.480Z,65.40
2023-03-29T11:41:15.987Z,64.90
2023-03-29T11:44:02.540Z,65.00
2023-03-29T11:46:32.722Z,65.30
2023-03-29T11:49:05.767Z,65.90
2023-03-29T11:51:46.327Z,65.00
2023-03-29T11:54:28.475Z,65.10
2023-03-29T11:57:18.159Z,64.70
2023-03-29T12:00:12.292Z,64.50
2023-03-29T12:02:48.018Z,65.10
2023-03-29T12:05:25.327Z,64.50
2023-03-29T12:08:05.534Z,64.90
2023-03-29T12:10:42.117Z,64.70
2023-03-29T12:13:17.216Z,64.30
2023-03-29T12:15:52.654Z,63.20
2023-03-29T12:18:22.541Z,63.50
2023-03-29T12:20:58.940Z,64.70
2023-03-29T12:23:34.538Z,64.10
2023-03-29T12:26:35.025Z,63.70
2023-03-29T12:29:39.039Z,63.30
2023-03-29T12:32:51.621Z,64.10
2023-03-29T12:36:09.709Z,63.90
2023-03-29T12:38:56.045Z,63.60
2023-03-29T12:41:44.979Z,63.70
2023-03-29T12:44:35.877Z,64.30
2023-03-29T12:47:26.681Z,64.00
2023-03-29T12:49:59.769Z,65.20
2023-03-29T12:52:36.819Z,65.20
2023-03-29T12:55:23.656Z,66.20
2023-03-29T12:58:28.694Z,65.60
2023-03-29T13:01:11.521Z,66.10
2023-03-29T13:03:50.175Z,66.80
2023-03-29T13:06:53.667Z,66.40
2023-03-29T13:09:57.981Z,66.20
2023-03-29T13:12:46.508Z,66.40
2023-03-29T13:15:19.280Z,66.00
2023-03-29T13:18:27.217Z,66.10
2023-03-29T13:21:21.233Z,66.40
2023-03-29T13:24:02.049Z,66.30
2023-03-29T13:27:07.547Z,66.40
2023-03-29T13:29:59.659Z,66.90
2023-03-29T13:33:29.205Z,65.90
2023-03-29T13:35:56.442Z,66.30
2023-03-29T13:38:31.833Z,64.90
2023-03-29T13:41:31.641Z,64.90
2023-03-29T13:43:59.172Z,64.60
2023-03-29T13:46:37.808Z,63.30
2023-03-29T13:49:23.967Z,64.40
2023-03-29T13:51:54.081Z,65.20
2023-03-29T13:54:32.770Z,63.90
2023-03-29T13:57:11.494Z,65.20
2023-03-29T14:00:00.813Z,64.60
2023-03-29T14:02:49.427Z,64.50
2023-03-29T14:05:28.890Z,64.90
2023-03-29T14:07:57.118Z,66.00
2023-03-29T14:10:42.801Z,66.70
2023-03-29T14:13:19.805Z,66.80
2023-03-29T14:15:55.499Z,65.80
2023-03-29T14:18:25.892Z,65.80
2023-03-29T14:20:56.164Z,65.80
2023-03-29T14:23:27.558Z,66.10
2023-03-29T14:25:54.796Z,65.80
2023-03-29T14:28:28.570Z,65.10
2023-03-29T14:30:56.762Z,65.50
2023-03-29T14:33:34.736Z,65.90
2023-03-29T14:36:04.519Z,66.20
2023-03-29T14:38:32.621Z,65.90
2023-03-29T14:41:01.356Z,65.50
2023-03-29T14:43:32.279Z,65.80
2023-03-29T14:46:04.479Z,65.70
2023-03-29T14:48:33.363Z,66.20
2023-03-29T14:51:01.212Z,66.00
2023-03-29T14:53:31.921Z,66.50
2023-03-29T14:55:59.488Z,66.40
2023-03-29T14:58:34.273Z,66.10
2023-03-29T15:01:17.031Z,66.60
2023-03-29T15:04:06.215Z,66.40
2023-03-29T15:06:42.337Z,66.30
2023-03-29T15:09:30.779Z,65.60
2023-03-29T15:12:00.208Z,66.00
2023-03-29T15:14:33.959Z,65.90
2023-03-29T15:17:36.046Z,66.20
2023-03-29T15:20:29.975Z,65.70
2023-03-29T15:23:04.550Z,65.70
2023-03-29T15:25:38.590Z,65.10
2023-03-29T15:28:06.413Z,65.50
2023-03-29T15:30:49.461Z,65.70
2023-03-29T15:33:25.031Z,65.10
2023-03-29T15:35:55.864Z,64.80
2023-03-29T15:38:27.697Z,65.80
2023-03-29T15:41:04.717Z,65.60
2023-03-29T15:43:31.991Z,64.80
2023-03-29T15:45:59.400Z,65.50
2023-03-29T15:48:29.044Z,66.00
2023-03-29T15:50:58.971Z,64.80
2023-03-29T15:53:28.013Z,65.70
2023-03-29T15:55:59.805Z,65.20
2023-03-29T15:58:31.097Z,65.20
2023-03-29T16:01:34.407Z,64.90
2023-03-29T16:04:32.342Z,64.90
2023-03-29T16:06:59.621Z,65.40
2023-03-29T16:09:27.661Z,64.90
2023-03-29T16:11:55.142Z,65.10
2023-03-29T16:14:27.242Z,65.60
2023-03-29T16:16:55.700Z,64.60
2023-03-29T16:19:24.318Z,64.60
2023-03-29T16:21:52.903Z,65.00
2023-03-29T16:24:27.317Z,65.00
2023-03-29T16:26:56.524Z,65.00
2023-03-29T16:29:24.952Z,65.10
2023-03-29T16:31:52.929Z,65.50
2023-03-29T16:34:21.862Z,65.80
2023-03-29T16:36:50.351Z,64.80
2023-03-29T16:39:18.340Z,65.60
2023-03-29T16:41:48.388Z,65.00
2023-03-29T16:44:23.858Z,65.60
2023-03-29T16:46:54.374Z,65.40
2023-03-29T16:49:22.435Z,65.80
2023-03-29T16:51:49.543Z,65.60
2023-03-29T16:54:17.486Z,65.60
2023-03-29T16:56:44.984Z,65.90
2023-03-29T16:59:12.512Z,66.60
2023-03-29T17:01:40.770Z,66.40
2023-03-29T17:04:08.862Z,66.20
2023-03-29T17:06:36.455Z,66.30
2023-03-29T17:09:05.209Z,67.10
2023-03-29T17:11:32.665Z,67.20
2023-03-29T17:14:00.209Z,67.20
2023-03-29T17:16:29.108Z,67.10
2023-03-29T17:19:00.441Z,67.20
2023-03-29T17:21:29.636Z,67.40
2023-03-29T17:23:56.882Z,67.70
2023-03-29T17:26:24.697Z,68.00
2023-03-29T17:28:52.020Z,68.10
2023-03-29T17:31:19.796Z,68.00
2023-03-29T17:33:47.649Z,67.80
2023-03-29T17:36:15.181Z,67.70
2023-03-29T17:38:43.074Z,67.30
2023-03-29T17:41:11.087Z,67.80
2023-03-29T17:43:38.284Z,67.30
2023-03-29T17:46:06.034Z,67.30
2023-03-29T17:48:33.867Z,67.60
2023-03-29T17:51:01.176Z,67.60
2023-03-29T17:53:28.457Z,67.50
2023-03-29T17:55:55.814Z,67.90
2023-03-29T17:58:23.621Z,67.70
2023-03-29T18:00:51.085Z,67.20
2023-03-29T18:03:18.333Z,67.40
2023-03-29T18:05:45.776Z,67.20
2023-03-29T18:08:15.106Z,67.30
2023-03-29T18:10:43.043Z,67.20
2023-03-29T18:13:13.849Z,67.30
2023-03-29T18:15:42.141Z,67.30
2023-03-29T18:18:09.298Z,67.40
2023-03-29T18:20:36.749Z,67.40
2023-03-29T18:23:03.953Z,67.70
2023-03-29T18:25:31.075Z,67.30
2023-03-29T18:27:58.354Z,67.30
2023-03-29T18:30:25.936Z,67.70
2023-03-29T18:32:53.315Z,67.50
2023-03-29T18:35:20.647Z,67.60
2023-03-29T18:37:47.797Z,67.60
2023-03-29T18:40:15.893Z,67.60
2023-03-29T18:42:43.088Z,67.70
2023-03-29T18:45:11.026Z,67.80
2023-03-29T18:47:38.214Z,68.00
2023-03-29T18:50:06.130Z,68.00
2023-03-29T18:52:33.292Z,67.90
2023-03-29T18:55:00.649Z,67.60
2023-03-29T18:57:27.971Z,67.50
2023-03-29T18:59:55.140Z,67.40
2023-03-29T19:02:22.323Z,67.60
2023-03-29T19:04:49.531Z,67.70
2023-03-29T19:07:17.755Z,67.40
2023-03-29T19:09:45.320Z,67.80
2023-03-29T19:12:12.516Z,67.90
2023-03-29T19:14:39.624Z,67.70
2023-03-29T19:17:06.781Z,67.90
2023-03-29T19:19:34.079Z,67.60
2023-03-29T19:22:01.230Z,67.70
2023-03-29T19:24:28.512Z,67.80
2023-03-29T19:26:56.582Z,67.50
2023-03-29T19:29:24.766Z,67.50
2023-03-29T19:31:52.040Z,67.20
2023-03-29T19:34:23.900Z,67.10
2023-03-29T19:36:53.530Z,67.20
2023-03-29T19:39:21.508Z,66.40
2023-03-29T19:41:48.745Z,66.20
2023-03-29T19:44:15.884Z,66.10
2023-03-29T19:46:43.076Z,66.10
2023-03-29T19:49:13.603Z,65.50
2023-03-29T19:51:43.096Z,65.70
2023-03-29T19:54:12.761Z,65.40
2023-03-29T19:56:40.821Z,65.40
2023-03-29T19:59:10.934Z,65.00
2023-03-29T20:01:40.954Z,65.10
2023-03-29T20:04:09.129Z,64.90
2023-03-29T20:06:36.238Z,65.20
2023-03-29T20:09:05.146Z,65.30
2023-03-29T20:11:32.186Z,65.40
2023-03-29T20:13:59.287Z,64.80
2023-03-29T20:16:27.125Z,64.70
2023-03-29T20:18:54.272Z,64.20
2023-03-29T20:21:21.394Z,64.40
2023-03-29T20:23:48.446Z,64.10
2023-03-29T20:26:15.515Z,64.00
2023-03-29T20:28:42.746Z,64.30
2023-03-29T20:31:13.157Z,64.30
2023-03-29T20:33:41.425Z,64.10
2023-03-29T20:36:09.096Z,64.00
2023-03-29T20:38:36.661Z,63.70
2023-03-29T20:41:05.331Z,63.70
2023-03-29T20:43:37.657Z,63.20
2023-03-29T20:46:14.236Z,63.40
2023-03-29T20:48:54.447Z,63.20
2023-03-29T20:51:30.382Z,63.60
2023-03-29T20:54:04.681Z,63.80
2023-03-29T20:56:37.393Z,63.40
2023-03-29T20:59:05.841Z,63.20
2023-03-29T21:01:40.663Z,63.30
2023-03-29T21:04:09.328Z,63.30
2023-03-29T21:06:39.484Z,62.80
2023-03-29T21:09:07.007Z,62.50
2023-03-29T21:11:34.146Z,62.30
2023-03-29T21:14:02.915Z,62.20
2023-03-29T21:16:30.973Z,61.70
2023-03-29T21:18:58.271Z,61.30
2023-03-29T21:21:25.585Z,60.90
2023-03-29T21:23:52.845Z,60.70
2023-03-29T21:26:19.960Z,60.30
2023-03-29T21:28:48.585Z,60.20
2023-03-29T21:31:15.975Z,60.80
2023-03-29T21:33:43.121Z,60.80
2023-03-29T21:36:10.832Z,59.90
2023-03-29T21:38:37.937Z,59.90
2023-03-29T21:41:05.645Z,59.90
2023-03-29T21:43:32.891Z,59.30
2023-03-29T21:46:00.011Z,59.40
2023-03-29T21:48:27.256Z,59.80
2023-03-29T21:50:54.694Z,60.20
2023-03-29T21:53:24.703Z,59.80
2023-03-29T21:55:52.420Z,60.10
2023-03-29T21:58:20.527Z,60.20
2023-03-29T22:00:48.683Z,60.30
2023-03-29T22:03:16.745Z,60.30
2023-03-29T22:05:44.445Z,59.70
2023-03-29T22:08:11.755Z,59.90
2023-03-29T22:10:41.290Z,59.90
2023-03-29T22:13:09.237Z,59.90
2023-03-29T22:15:38.971Z,59.60
2023-03-29T22:18:06.293Z,60.00
2023-03-29T22:20:34.230Z,59.90
2023-03-29T22:23:01.358Z,59.90
2023-03-29T22:25:28.722Z,59.80
2023-03-29T22:27:55.837Z,60.10
2023-03-29T22:30:23.062Z,60.50
2023-03-29T22:32:50.151Z,60.50
2023-03-29T22:35:17.338Z,60.30
2023-03-29T22:37:44.487Z,60.20
2023-03-29T22:40:13.182Z,60.10
2023-03-29T22:42:40.686Z,60.50
2023-03-29T22:45:08.974Z,60.00
2023-03-29T22:47:36.154Z,59.80
2023-03-29T22:50:03.444Z,59.60
2023-03-29T22:52:30.685Z,59.60
2023-03-29T22:54:57.772Z,59.70
2023-03-29T22:57:24.892Z,59.40
2023-03-29T22:59:52.040Z,59.60
2023-03-29T23:02:19.124Z,59.10
2023-03-29T23:04:46.935Z,58.10
2023-03-29T23:07:14.035Z,58.40
2023-03-29T23:09:41.105Z,57.50
2023-03-29T23:12:09.740Z,57.60
2023-03-29T23:14:37.576Z,57.60
2023-03-29T23:17:04.825Z,57.00
2023-03-29T23:19:32.105Z,57.10
2023-03-29T23:21:59.168Z,57.30
2023-03-29T23:24:26.648Z,57.10
2023-03-29T23:26:55.244Z,57.20
2023-03-29T23:29:22.724Z,57.00
2023-03-29T23:31:49.821Z,57.60
2023-03-29T23:34:18.233Z,57.70
2023-03-29T23:36:45.279Z,58.30
2023-03-29T23:39:12.361Z,58.40
2023-03-29T23:41:40.146Z,58.50
2023-03-29T23:44:07.892Z,58.60
2023-03-29T23:46:35.107Z,58.80
2023-03-29T23:49:02.181Z,59.10
2023-03-29T23:51:29.398Z,59.40
2023-03-29T23:53:57.106Z,58.90
2023-03-29T23:56:24.369Z,59.10
2023-03-29T23:58:51.787Z,58.90
